sensor_id;sensor_type;location;lat;lon;timestamp;pressure;altitude;pressure_sealevel;temperature;humidity
63115;BME280;49208;50.874;6.466;2023-04-22T06:01:36;99564.22;;;9.89;100.00
63115;BME280;49208;50.874;6.466;2023-04-22T06:04:03;99559.88;;;10.24;100.00
63115;BME280;49208;50.874;6.466;2023-04-22T06:06:30;99570.66;;;10.94;100.00
63115;BME280;49208;50.874;6.466;2023-04-22T06:08:56;99561.66;;;11.97;100.00
63115;BME280;49208;50.874;6.466;2023-04-22T06:11:21;99554.53;;;13.05;100.00
63115;BME280;49208;50.874;6.466;2023-04-22T06:13:47;99556.97;;;14.23;96.47
63115;BME280;49208;50.874;6.466;2023-04-22T06:16:12;99559.13;;;15.25;86.75
63115;BME280;49208;50.874;6.466;2023-04-22T06:18:37;99551.88;;;16.40;85.00
63115;BME280;49208;50.874;6.466;2023-04-22T06:21:03;99553.72;;;17.34;76.74
63115;BME280;49208;50.874;6.466;2023-04-22T06:23:28;99551.28;;;17.42;74.19
63115;BME280;49208;50.874;6.466;2023-04-22T06:25:54;99550.69;;;17.03;72.71
63115;BME280;49208;50.874;6.466;2023-04-22T06:28:19;99548.41;;;16.50;74.54
63115;BME280;49208;50.874;6.466;2023-04-22T06:30:45;99555.59;;;15.76;75.64
63115;BME280;49208;50.874;6.466;2023-04-22T06:33:11;99553.44;;;15.17;77.90
63115;BME280;49208;50.874;6.466;2023-04-22T06:35:36;99549.56;;;14.41;81.48
63115;BME280;49208;50.874;6.466;2023-04-22T06:38:02;99552.75;;;13.92;83.72
63115;BME280;49208;50.874;6.466;2023-04-22T06:40:27;99548.91;;;13.96;86.32
63115;BME280;49208;50.874;6.466;2023-04-22T06:42:52;99552.03;;;14.44;86.20
63115;BME280;49208;50.874;6.466;2023-04-22T06:45:18;99560.84;;;15.78;84.11
63115;BME280;49208;50.874;6.466;2023-04-22T06:47:44;99547.38;;;17.35;72.99
63115;BME280;49208;50.874;6.466;2023-04-22T06:50:09;99549.66;;;18.85;67.48
63115;BME280;49208;50.874;6.466;2023-04-22T06:52:35;99545.66;;;20.04;64.70
63115;BME280;49208;50.874;6.466;2023-04-22T06:55:01;99549.22;;;21.03;57.68
63115;BME280;49208;50.874;6.466;2023-04-22T06:57:30;99537.44;;;21.89;56.54
63115;BME280;49208;50.874;6.466;2023-04-22T06:59:55;99540.00;;;22.28;54.33
63115;BME280;49208;50.874;6.466;2023-04-22T07:02:21;99536.69;;;22.06;52.30
63115;BME280;49208;50.874;6.466;2023-04-22T07:04:46;99539.72;;;22.21;50.52
63115;BME280;49208;50.874;6.466;2023-04-22T07:07:12;99539.53;;;22.32;54.55
63115;BME280;49208;50.874;6.466;2023-04-22T07:09:38;99536.47;;;22.63;53.57
63115;BME280;49208;50.874;6.466;2023-04-22T07:12:04;99537.41;;;23.08;50.84
63115;BME280;49208;50.874;6.466;2023-04-22T07:14:29;99536.25;;;23.63;48.63
63115;BME280;49208;50.874;6.466;2023-04-22T07:16:55;99535.41;;;23.96;44.37
63115;BME280;49208;50.874;6.466;2023-04-22T07:19:21;99518.81;;;24.58;46.43
63115;BME280;49208;50.874;6.466;2023-04-22T07:21:46;99530.41;;;24.93;41.92
63115;BME280;49208;50.874;6.466;2023-04-22T07:24:12;99526.81;;;24.60;43.21
63115;BME280;49208;50.874;6.466;2023-04-22T07:26:39;99521.56;;;24.83;42.50
63115;BME280;49208;50.874;6.466;2023-04-22T07:29:05;99522.75;;;24.89;42.82
63115;BME280;49208;50.874;6.466;2023-04-22T07:31:32;99522.09;;;24.95;39.57
63115;BME280;49208;50.874;6.466;2023-04-22T07:33:57;99506.22;;;25.15;41.35
63115;BME280;49208;50.874;6.466;2023-04-22T07:36:22;99506.72;;;25.51;40.32
63115;BME280;49208;50.874;6.466;2023-04-22T07:38:48;99518.28;;;25.53;39.49
63115;BME280;49208;50.874;6.466;2023-04-22T07:41:13;99514.50;;;25.63;42.46
63115;BME280;49208;50.874;6.466;2023-04-22T07:43:38;99516.97;;;25.41;40.73
63115;BME280;49208;50.874;6.466;2023-04-22T07:46:04;99507.94;;;24.83;37.31
63115;BME280;49208;50.874;6.466;2023-04-22T07:48:29;99508.75;;;24.51;42.48
63115;BME280;49208;50.874;6.466;2023-04-22T07:50:55;99507.53;;;24.37;41.13
63115;BME280;49208;50.874;6.466;2023-04-22T07:53:20;99495.50;;;24.56;40.33
63115;BME280;49208;50.874;6.466;2023-04-22T07:55:45;99492.44;;;24.51;40.79
63115;BME280;49208;50.874;6.466;2023-04-22T07:58:11;99499.66;;;24.26;42.49
63115;BME280;49208;50.874;6.466;2023-04-22T08:00:36;99497.19;;;23.90;44.67
63115;BME280;49208;50.874;6.466;2023-04-22T08:03:02;99489.41;;;23.69;41.70
63115;BME280;49208;50.874;6.466;2023-04-22T08:05:28;99487.94;;;23.48;43.78
63115;BME280;49208;50.874;6.466;2023-04-22T08:07:53;99497.41;;;23.10;45.00
63115;BME280;49208;50.874;6.466;2023-04-22T08:10:19;99485.78;;;22.46;45.61
63115;BME280;49208;50.874;6.466;2023-04-22T08:12:44;99483.25;;;21.89;46.10
63115;BME280;49208;50.874;6.466;2023-04-22T08:15:10;99485.22;;;21.31;48.60
63115;BME280;49208;50.874;6.466;2023-04-22T08:17:35;99492.41;;;20.64;49.03
63115;BME280;49208;50.874;6.466;2023-04-22T08:20:01;99485.13;;;20.45;51.31
63115;BME280;49208;50.874;6.466;2023-04-22T08:22:28;99493.38;;;20.34;48.19
63115;BME280;49208;50.874;6.466;2023-04-22T08:24:53;99488.53;;;20.37;49.67
63115;BME280;49208;50.874;6.466;2023-04-22T08:27:20;99489.66;;;20.25;50.98
63115;BME280;49208;50.874;6.466;2023-04-22T08:29:46;99479.28;;;20.50;49.90
63115;BME280;49208;50.874;6.466;2023-04-22T08:32:11;99477.63;;;20.78;51.46
63115;BME280;49208;50.874;6.466;2023-04-22T08:34:37;99476.16;;;21.03;50.86
63115;BME280;49208;50.874;6.466;2023-04-22T08:37:02;99479.31;;;20.98;50.67
63115;BME280;49208;50.874;6.466;2023-04-22T08:39:28;99480.19;;;20.79;49.34
63115;BME280;49208;50.874;6.466;2023-04-22T08:41:54;99477.63;;;20.88;49.35
63115;BME280;49208;50.874;6.466;2023-04-22T08:44:21;99478.59;;;20.87;48.93
63115;BME280;49208;50.874;6.466;2023-04-22T08:46:47;99474.59;;;21.01;51.34
63115;BME280;49208;50.874;6.466;2023-04-22T08:49:17;99472.88;;;21.09;51.91
63115;BME280;49208;50.874;6.466;2023-04-22T08:51:43;99471.25;;;21.26;53.38
63115;BME280;49208;50.874;6.466;2023-04-22T08:54:10;99478.91;;;21.40;54.47
63115;BME280;49208;50.874;6.466;2023-04-22T08:56:40;99460.69;;;21.70;54.06
63115;BME280;49208;50.874;6.466;2023-04-22T08:59:06;99453.50;;;22.07;46.15
63115;BME280;49208;50.874;6.466;2023-04-22T09:01:31;99450.38;;;21.84;47.06
63115;BME280;49208;50.874;6.466;2023-04-22T09:03:58;99455.16;;;21.62;45.57
63115;BME280;49208;50.874;6.466;2023-04-22T09:06:24;99457.84;;;21.25;46.51
63115;BME280;49208;50.874;6.466;2023-04-22T09:08:50;99462.84;;;21.29;48.33
63115;BME280;49208;50.874;6.466;2023-04-22T09:11:16;99450.88;;;21.22;48.00
63115;BME280;49208;50.874;6.466;2023-04-22T09:13:42;99447.91;;;21.15;49.96
63115;BME280;49208;50.874;6.466;2023-04-22T09:16:08;99454.75;;;21.19;50.21
63115;BME280;49208;50.874;6.466;2023-04-22T09:18:43;99452.50;;;21.15;47.71
63115;BME280;49208;50.874;6.466;2023-04-22T09:21:10;99445.34;;;21.24;51.91
63115;BME280;49208;50.874;6.466;2023-04-22T09:23:50;99446.75;;;21.28;50.84
63115;BME280;49208;50.874;6.466;2023-04-22T09:26:22;99453.81;;;21.38;52.57
63115;BME280;49208;50.874;6.466;2023-04-22T09:28:49;99445.56;;;21.40;49.94
63115;BME280;49208;50.874;6.466;2023-04-22T09:31:15;99441.84;;;21.41;50.23
63115;BME280;49208;50.874;6.466;2023-04-22T09:33:40;99445.94;;;21.55;52.74
63115;BME280;49208;50.874;6.466;2023-04-22T09:36:08;99445.84;;;21.74;52.04
63115;BME280;49208;50.874;6.466;2023-04-22T09:38:34;99448.13;;;21.97;50.79
63115;BME280;49208;50.874;6.466;2023-04-22T09:41:00;99453.13;;;22.19;51.42
63115;BME280;49208;50.874;6.466;2023-04-22T09:43:25;99454.94;;;22.47;52.16
63115;BME280;49208;50.874;6.466;2023-04-22T09:45:51;99463.16;;;22.55;46.90
63115;BME280;49208;50.874;6.466;2023-04-22T09:48:17;99471.63;;;22.52;48.97
63115;BME280;49208;50.874;6.466;2023-04-22T09:50:46;99468.03;;;22.33;48.54
63115;BME280;49208;50.874;6.466;2023-04-22T09:53:14;99476.78;;;22.45;50.10
63115;BME280;49208;50.874;6.466;2023-04-22T09:55:45;99470.50;;;22.45;46.52
63115;BME280;49208;50.874;6.466;2023-04-22T09:58:13;99479.75;;;22.06;47.90
63115;BME280;49208;50.874;6.466;2023-04-22T10:00:41;99475.81;;;21.73;47.35
63115;BME280;49208;50.874;6.466;2023-04-22T10:03:06;99477.09;;;21.31;51.52
63115;BME280;49208;50.874;6.466;2023-04-22T10:05:32;99486.97;;;21.03;55.50
63115;BME280;49208;50.874;6.466;2023-04-22T10:08:06;99482.88;;;20.70;52.61
63115;BME280;49208;50.874;6.466;2023-04-22T10:10:32;99492.66;;;20.42;52.81
63115;BME280;49208;50.874;6.466;2023-04-22T10:12:58;99493.78;;;20.29;54.00
63115;BME280;49208;50.874;6.466;2023-04-22T10:15:24;99493.94;;;20.47;54.42
63115;BME280;49208;50.874;6.466;2023-04-22T10:17:52;99486.72;;;20.77;55.92
63115;BME280;49208;50.874;6.466;2023-04-22T10:20:19;99484.09;;;21.14;56.54
63115;BME280;49208;50.874;6.466;2023-04-22T10:22:45;99491.31;;;21.43;54.97
63115;BME280;49208;50.874;6.466;2023-04-22T10:25:12;99483.38;;;21.69;53.20
63115;BME280;49208;50.874;6.466;2023-04-22T10:27:38;99490.34;;;21.72;53.32
63115;BME280;49208;50.874;6.466;2023-04-22T10:30:06;99485.13;;;21.88;50.20
63115;BME280;49208;50.874;6.466;2023-04-22T10:32:32;99483.09;;;22.18;52.58
63115;BME280;49208;50.874;6.466;2023-04-22T10:35:09;99487.72;;;22.35;47.03
63115;BME280;49208;50.874;6.466;2023-04-22T10:37:36;99485.53;;;22.39;50.67
63115;BME280;49208;50.874;6.466;2023-04-22T10:40:15;99483.75;;;22.30;49.10
63115;BME280;49208;50.874;6.466;2023-04-22T10:42:47;99482.47;;;21.78;49.98
63115;BME280;49208;50.874;6.466;2023-04-22T10:45:14;99478.91;;;21.31;49.14
63115;BME280;49208;50.874;6.466;2023-04-22T10:47:40;99479.25;;;21.18;51.72
63115;BME280;49208;50.874;6.466;2023-04-22T10:50:25;99477.81;;;21.24;53.13
63115;BME280;49208;50.874;6.466;2023-04-22T10:52:57;99479.63;;;21.43;52.37
63115;BME280;49208;50.874;6.466;2023-04-22T10:55:24;99477.91;;;21.42;53.38
63115;BME280;49208;50.874;6.466;2023-04-22T10:57:51;99475.03;;;21.53;53.79
63115;BME280;49208;50.874;6.466;2023-04-22T11:00:24;99467.09;;;21.79;53.75
63115;BME280;49208;50.874;6.466;2023-04-22T11:05:23;99470.81;;;22.24;50.48
63115;BME280;49208;50.874;6.466;2023-04-22T11:07:53;99465.56;;;22.40;50.09
63115;BME280;49208;50.874;6.466;2023-04-22T11:10:34;99461.53;;;22.62;51.50
63115;BME280;49208;50.874;6.466;2023-04-22T11:13:05;99451.38;;;22.64;43.67
63115;BME280;49208;50.874;6.466;2023-04-22T11:15:34;99463.84;;;22.57;49.11
63115;BME280;49208;50.874;6.466;2023-04-22T11:18:00;99464.47;;;22.51;46.87
63115;BME280;49208;50.874;6.466;2023-04-22T11:20:26;99462.53;;;22.43;47.49
63115;BME280;49208;50.874;6.466;2023-04-22T11:22:54;99461.31;;;22.37;49.87
63115;BME280;49208;50.874;6.466;2023-04-22T11:25:21;99462.41;;;22.17;51.35
63115;BME280;49208;50.874;6.466;2023-04-22T11:27:47;99456.22;;;22.07;50.55
63115;BME280;49208;50.874;6.466;2023-04-22T11:30:23;99463.69;;;21.95;51.43
63115;BME280;49208;50.874;6.466;2023-04-22T11:32:50;99459.44;;;21.92;50.65
63115;BME280;49208;50.874;6.466;2023-04-22T11:35:17;99467.84;;;21.89;52.32
63115;BME280;49208;50.874;6.466;2023-04-22T11:37:45;99472.03;;;21.84;52.05
63115;BME280;49208;50.874;6.466;2023-04-22T11:40:13;99465.41;;;21.68;53.06
63115;BME280;49208;50.874;6.466;2023-04-22T11:42:39;99472.06;;;21.36;51.86
63115;BME280;49208;50.874;6.466;2023-04-22T11:45:05;99470.91;;;20.92;51.81
63115;BME280;49208;50.874;6.466;2023-04-22T11:47:32;99476.63;;;20.59;53.44
63115;BME280;49208;50.874;6.466;2023-04-22T11:49:58;99477.56;;;20.29;57.50
63115;BME280;49208;50.874;6.466;2023-04-22T11:55:09;99482.75;;;19.82;54.17
63115;BME280;49208;50.874;6.466;2023-04-22T11:57:35;99483.94;;;19.68;55.93
63115;BME280;49208;50.874;6.466;2023-04-22T12:00:00;99488.84;;;19.74;56.22
63115;BME280;49208;50.874;6.466;2023-04-22T12:02:26;99485.00;;;19.77;56.30
63115;BME280;49208;50.874;6.466;2023-04-22T12:04:51;99478.19;;;19.83;56.05
63115;BME280;49208;50.874;6.466;2023-04-22T12:07:16;99484.03;;;19.88;56.87
63115;BME280;49208;50.874;6.466;2023-04-22T12:09:42;99488.31;;;19.90;54.67
63115;BME280;49208;50.874;6.466;2023-04-22T12:12:07;99487.19;;;19.93;57.73
63115;BME280;49208;50.874;6.466;2023-04-22T12:14:34;99490.59;;;19.95;56.25
63115;BME280;49208;50.874;6.466;2023-04-22T12:17:03;99496.25;;;19.82;54.87
63115;BME280;49208;50.874;6.466;2023-04-22T12:19:32;99502.78;;;19.58;56.99
63115;BME280;49208;50.874;6.466;2023-04-22T12:21:57;99500.47;;;19.44;57.90
63115;BME280;49208;50.874;6.466;2023-04-22T12:24:29;99495.81;;;19.25;59.25
63115;BME280;49208;50.874;6.466;2023-04-22T12:26:54;99498.84;;;19.11;57.79
63115;BME280;49208;50.874;6.466;2023-04-22T12:29:31;99498.41;;;18.85;59.11
63115;BME280;49208;50.874;6.466;2023-04-22T12:31:56;99499.34;;;18.63;59.26
63115;BME280;49208;50.874;6.466;2023-04-22T12:34:22;99499.91;;;18.45;59.48
63115;BME280;49208;50.874;6.466;2023-04-22T12:36:47;99509.19;;;18.20;61.72
63115;BME280;49208;50.874;6.466;2023-04-22T12:39:13;99517.75;;;18.03;64.21
63115;BME280;49208;50.874;6.466;2023-04-22T12:41:39;99516.22;;;17.89;65.44
63115;BME280;49208;50.874;6.466;2023-04-22T12:44:05;99505.19;;;17.81;64.78
63115;BME280;49208;50.874;6.466;2023-04-22T12:46:30;99506.63;;;17.73;66.29
63115;BME280;49208;50.874;6.466;2023-04-22T12:48:56;99509.69;;;17.69;64.77
63115;BME280;49208;50.874;6.466;2023-04-22T12:51:22;99507.97;;;17.68;64.53
63115;BME280;49208;50.874;6.466;2023-04-22T12:53:47;99499.31;;;17.64;65.34
63115;BME280;49208;50.874;6.466;2023-04-22T12:56:12;99505.44;;;17.66;64.77
63115;BME280;49208;50.874;6.466;2023-04-22T12:58:38;99492.44;;;17.71;65.57
63115;BME280;49208;50.874;6.466;2023-04-22T13:01:03;99494.03;;;17.74;64.54
63115;BME280;49208;50.874;6.466;2023-04-22T13:03:28;99490.00;;;17.80;64.81
63115;BME280;49208;50.874;6.466;2023-04-22T13:05:54;99489.41;;;17.87;64.70
63115;BME280;49208;50.874;6.466;2023-04-22T13:08:19;99492.81;;;18.01;64.49
63115;BME280;49208;50.874;6.466;2023-04-22T13:10:45;99484.44;;;18.15;63.20
63115;BME280;49208;50.874;6.466;2023-04-22T13:13:10;99488.69;;;18.29;63.44
63115;BME280;49208;50.874;6.466;2023-04-22T13:15:36;99494.16;;;18.38;62.45
63115;BME280;49208;50.874;6.466;2023-04-22T13:18:01;99494.88;;;18.41;61.59
63115;BME280;49208;50.874;6.466;2023-04-22T13:20:27;99490.53;;;18.28;61.30
63115;BME280;49208;50.874;6.466;2023-04-22T13:22:52;99491.06;;;18.22;59.96
63115;BME280;49208;50.874;6.466;2023-04-22T13:25:17;99498.53;;;18.07;63.92
63115;BME280;49208;50.874;6.466;2023-04-22T13:27:43;99489.88;;;17.92;63.26
63115;BME280;49208;50.874;6.466;2023-04-22T13:30:09;99494.25;;;17.82;62.65
63115;BME280;49208;50.874;6.466;2023-04-22T13:32:34;99494.03;;;17.74;63.00
63115;BME280;49208;50.874;6.466;2023-04-22T13:35:00;99505.44;;;17.66;64.85
63115;BME280;49208;50.874;6.466;2023-04-22T13:37:25;99502.34;;;17.60;67.38
63115;BME280;49208;50.874;6.466;2023-04-22T13:39:51;99492.44;;;17.49;68.58
63115;BME280;49208;50.874;6.466;2023-04-22T13:42:16;99496.72;;;17.40;69.41
63115;BME280;49208;50.874;6.466;2023-04-22T13:44:42;99493.91;;;17.30;71.96
63115;BME280;49208;50.874;6.466;2023-04-22T13:47:07;99501.59;;;17.24;72.06
63115;BME280;49208;50.874;6.466;2023-04-22T13:49:33;99509.53;;;17.14;73.43
63115;BME280;49208;50.874;6.466;2023-04-22T13:51:58;99503.28;;;17.02;72.50
63115;BME280;49208;50.874;6.466;2023-04-22T13:54:24;99505.72;;;16.94;71.64
63115;BME280;49208;50.874;6.466;2023-04-22T13:56:50;99498.00;;;16.89;72.14
63115;BME280;49208;50.874;6.466;2023-04-22T13:59:16;99493.72;;;16.87;72.62
63115;BME280;49208;50.874;6.466;2023-04-22T14:01:41;99498.34;;;16.85;71.20
63115;BME280;49208;50.874;6.466;2023-04-22T14:04:06;99498.47;;;16.83;69.98
63115;BME280;49208;50.874;6.466;2023-04-22T14:06:32;99493.28;;;16.80;69.98
63115;BME280;49208;50.874;6.466;2023-04-22T14:08:58;99502.47;;;16.77;69.05
63115;BME280;49208;50.874;6.466;2023-04-22T14:11:25;99501.94;;;16.72;69.27
63115;BME280;49208;50.874;6.466;2023-04-22T14:13:50;99510.88;;;16.73;68.63
63115;BME280;49208;50.874;6.466;2023-04-22T14:16:16;99519.16;;;16.70;69.38
63115;BME280;49208;50.874;6.466;2023-04-22T14:18:42;99500.59;;;16.67;68.71
63115;BME280;49208;50.874;6.466;2023-04-22T14:21:10;99492.66;;;16.65;70.01
63115;BME280;49208;50.874;6.466;2023-04-22T14:23:36;99501.66;;;16.64;68.91
63115;BME280;49208;50.874;6.466;2023-04-22T14:26:02;99511.91;;;16.59;69.18
63115;BME280;49208;50.874;6.466;2023-04-22T14:28:28;99509.34;;;16.57;69.36
63115;BME280;49208;50.874;6.466;2023-04-22T14:30:54;99507.00;;;16.53;70.65
63115;BME280;49208;50.874;6.466;2023-04-22T14:33:20;99508.22;;;16.49;71.18
63115;BME280;49208;50.874;6.466;2023-04-22T14:35:46;99508.56;;;16.44;72.13
63115;BME280;49208;50.874;6.466;2023-04-22T14:38:11;99503.41;;;16.41;72.46
63115;BME280;49208;50.874;6.466;2023-04-22T14:40:37;99507.91;;;16.41;72.48
63115;BME280;49208;50.874;6.466;2023-04-22T14:43:04;99509.03;;;16.38;73.79
63115;BME280;49208;50.874;6.466;2023-04-22T14:45:30;99514.59;;;16.35;75.16
63115;BME280;49208;50.874;6.466;2023-04-22T14:47:56;99509.97;;;16.37;73.04
63115;BME280;49208;50.874;6.466;2023-04-22T14:50:22;99511.47;;;16.41;73.07
63115;BME280;49208;50.874;6.466;2023-04-22T14:52:48;99516.91;;;16.52;73.31
63115;BME280;49208;50.874;6.466;2023-04-22T14:55:14;99513.16;;;16.66;70.41
63115;BME280;49208;50.874;6.466;2023-04-22T14:57:39;99506.47;;;16.72;71.25
63115;BME280;49208;50.874;6.466;2023-04-22T15:00:06;99505.16;;;16.77;71.83
63115;BME280;49208;50.874;6.466;2023-04-22T15:02:32;99511.38;;;16.78;71.20
63115;BME280;49208;50.874;6.466;2023-04-22T15:04:58;99510.75;;;16.74;72.29
63115;BME280;49208;50.874;6.466;2023-04-22T15:07:24;99515.38;;;16.72;72.27
63115;BME280;49208;50.874;6.466;2023-04-22T15:09:49;99503.78;;;16.72;72.40
63115;BME280;49208;50.874;6.466;2023-04-22T15:12:14;99503.13;;;16.68;72.67
63115;BME280;49208;50.874;6.466;2023-04-22T15:14:40;99510.25;;;16.69;72.58
63115;BME280;49208;50.874;6.466;2023-04-22T15:17:05;99521.09;;;16.68;72.77
63115;BME280;49208;50.874;6.466;2023-04-22T15:19:31;99516.94;;;16.64;74.04
63115;BME280;49208;50.874;6.466;2023-04-22T15:21:56;99523.50;;;16.60;73.97
63115;BME280;49208;50.874;6.466;2023-04-22T15:24:21;99525.19;;;16.49;74.53
63115;BME280;49208;50.874;6.466;2023-04-22T15:26:49;99523.94;;;16.42;74.58
63115;BME280;49208;50.874;6.466;2023-04-22T15:29:15;99537.72;;;16.38;74.25
63115;BME280;49208;50.874;6.466;2023-04-22T15:31:40;99537.63;;;16.26;74.01
63115;BME280;49208;50.874;6.466;2023-04-22T15:34:05;99536.50;;;16.17;74.92
63115;BME280;49208;50.874;6.466;2023-04-22T15:36:31;99538.88;;;16.09;75.44
63115;BME280;49208;50.874;6.466;2023-04-22T15:38:57;99542.25;;;16.00;75.71
63115;BME280;49208;50.874;6.466;2023-04-22T15:41:24;99540.22;;;15.91;76.28
63115;BME280;49208;50.874;6.466;2023-04-22T15:43:50;99532.59;;;15.85;76.65
63115;BME280;49208;50.874;6.466;2023-04-22T15:46:20;99532.84;;;15.82;77.51
63115;BME280;49208;50.874;6.466;2023-04-22T15:48:45;99529.75;;;15.75;77.04
63115;BME280;49208;50.874;6.466;2023-04-22T15:51:16;99527.47;;;15.69;78.21
63115;BME280;49208;50.874;6.466;2023-04-22T15:53:42;99517.69;;;15.68;77.28
63115;BME280;49208;50.874;6.466;2023-04-22T15:56:10;99532.28;;;15.64;78.50
63115;BME280;49208;50.874;6.466;2023-04-22T15:58:35;99525.09;;;15.64;78.32
63115;BME280;49208;50.874;6.466;2023-04-22T16:01:01;99532.38;;;15.62;78.63
63115;BME280;49208;50.874;6.466;2023-04-22T16:03:27;99536.16;;;15.60;79.46
63115;BME280;49208;50.874;6.466;2023-04-22T16:05:52;99529.28;;;15.55;78.99
63115;BME280;49208;50.874;6.466;2023-04-22T16:08:18;99532.22;;;15.52;79.14
63115;BME280;49208;50.874;6.466;2023-04-22T16:10:43;99533.06;;;15.53;78.98
63115;BME280;49208;50.874;6.466;2023-04-22T16:13:09;99533.50;;;15.47;80.05
63115;BME280;49208;50.874;6.466;2023-04-22T16:15:35;99537.44;;;15.41;81.07
63115;BME280;49208;50.874;6.466;2023-04-22T16:18:01;99540.38;;;15.38;82.15
63115;BME280;49208;50.874;6.466;2023-04-22T16:20:29;99535.75;;;15.40;81.01
63115;BME280;49208;50.874;6.466;2023-04-22T16:22:54;99531.88;;;15.44;81.48
63115;BME280;49208;50.874;6.466;2023-04-22T16:25:20;99538.31;;;15.42;81.63
63115;BME280;49208;50.874;6.466;2023-04-22T16:27:45;99542.16;;;15.38;83.11
63115;BME280;49208;50.874;6.466;2023-04-22T16:30:11;99538.88;;;15.34;83.68
63115;BME280;49208;50.874;6.466;2023-04-22T16:32:37;99534.69;;;15.30;84.81
63115;BME280;49208;50.874;6.466;2023-04-22T16:35:02;99542.16;;;15.25;85.97
63115;BME280;49208;50.874;6.466;2023-04-22T16:37:28;99545.06;;;15.22;86.72
63115;BME280;49208;50.874;6.466;2023-04-22T16:39:53;99542.59;;;15.19;86.88
63115;BME280;49208;50.874;6.466;2023-04-22T16:42:19;99543.47;;;15.19;88.86
63115;BME280;49208;50.874;6.466;2023-04-22T16:44:44;99532.00;;;15.17;89.35
63115;BME280;49208;50.874;6.466;2023-04-22T16:47:10;99539.28;;;15.15;89.87
63115;BME280;49208;50.874;6.466;2023-04-22T16:49:35;99535.84;;;15.13;90.99
63115;BME280;49208;50.874;6.466;2023-04-22T16:52:00;99531.53;;;15.10;91.24
63115;BME280;49208;50.874;6.466;2023-04-22T16:54:26;99538.06;;;15.06;91.93
63115;BME280;49208;50.874;6.466;2023-04-22T16:56:51;99536.69;;;15.01;93.77
63115;BME280;49208;50.874;6.466;2023-04-22T16:59:17;99540.66;;;14.95;95.18
63115;BME280;49208;50.874;6.466;2023-04-22T17:01:42;99542.56;;;14.93;95.00
63115;BME280;49208;50.874;6.466;2023-04-22T17:04:07;99543.09;;;14.85;95.55
63115;BME280;49208;50.874;6.466;2023-04-22T17:06:33;99544.91;;;14.85;96.83
63115;BME280;49208;50.874;6.466;2023-04-22T17:08:58;99547.06;;;14.80;98.22
63115;BME280;49208;50.874;6.466;2023-04-22T17:11:24;99541.78;;;14.78;97.37
63115;BME280;49208;50.874;6.466;2023-04-22T17:13:50;99541.88;;;14.77;97.63
63115;BME280;49208;50.874;6.466;2023-04-22T17:16:16;99540.28;;;14.74;97.87
63115;BME280;49208;50.874;6.466;2023-04-22T17:18:41;99541.34;;;14.71;97.76
63115;BME280;49208;50.874;6.466;2023-04-22T17:21:06;99551.31;;;14.69;98.68
63115;BME280;49208;50.874;6.466;2023-04-22T17:23:34;99547.88;;;14.67;99.25
63115;BME280;49208;50.874;6.466;2023-04-22T17:25:59;99549.69;;;14.67;99.51
63115;BME280;49208;50.874;6.466;2023-04-22T17:28:25;99552.56;;;14.64;98.67
63115;BME280;49208;50.874;6.466;2023-04-22T17:30:50;99544.72;;;14.61;99.00
63115;BME280;49208;50.874;6.466;2023-04-22T17:33:16;99541.41;;;14.57;99.84
63115;BME280;49208;50.874;6.466;2023-04-22T17:35:41;99539.75;;;14.54;100.00
63115;BME280;49208;50.874;6.466;2023-04-22T17:38:06;99549.69;;;14.52;100.00
63115;BME280;49208;50.874;6.466;2023-04-22T17:40:32;99540.91;;;14.50;100.00
63115;BME280;49208;50.874;6.466;2023-04-22T17:42:57;99546.47;;;14.47;100.00
63115;BME280;49208;50.874;6.466;2023-04-22T17:45:23;99546.66;;;14.44;100.00
63115;BME280;49208;50.874;6.466;2023-04-22T17:47:48;99549.47;;;14.43;100.00
63115;BME280;49208;50.874;6.466;2023-04-22T17:50:13;99558.66;;;14.39;100.00
63115;BME280;49208;50.874;6.466;2023-04-22T17:52:39;99549.97;;;14.35;100.00
63115;BME280;49208;50.874;6.466;2023-04-22T17:55:05;99554.56;;;14.33;100.00
63115;BME280;49208;50.874;6.466;2023-04-22T17:57:31;99554.78;;;14.30;100.00
63115;BME280;49208;50.874;6.466;2023-04-22T17:59:56;99550.47;;;14.27;100.00
63115;BME280;49208;50.874;6.466;2023-04-22T18:02:21;99544.47;;;14.24;100.00
63115;BME280;49208;50.874;6.466;2023-04-22T18:04:49;99546.47;;;14.20;100.00
63115;BME280;49208;50.874;6.466;2023-04-22T18:07:14;99551.16;;;14.17;100.00
63115;BME280;49208;50.874;6.466;2023-04-22T18:09:39;99553.84;;;14.17;100.00
63115;BME280;49208;50.874;6.466;2023-04-22T18:12:05;99553.38;;;14.10;100.00
63115;BME280;49208;50.874;6.466;2023-04-22T18:14:30;99560.66;;;14.08;100.00
63115;BME280;49208;50.874;6.466;2023-04-22T18:16:56;99562.66;;;14.04;100.00
63115;BME280;49208;50.874;6.466;2023-04-22T18:19:21;99568.09;;;14.03;100.00
63115;BME280;49208;50.874;6.466;2023-04-22T18:21:47;99577.19;;;14.00;100.00
63115;BME280;49208;50.874;6.466;2023-04-22T18:24:12;99573.75;;;13.98;100.00
63115;BME280;49208;50.874;6.466;2023-04-22T18:26:38;99573.88;;;13.97;100.00
63115;BME280;49208;50.874;6.466;2023-04-22T18:29:04;99577.31;;;13.99;99.90
63115;BME280;49208;50.874;6.466;2023-04-22T18:31:30;99580.16;;;13.95;99.25
63115;BME280;49208;50.874;6.466;2023-04-22T18:33:56;99607.91;;;13.94;98.71
63115;BME280;49208;50.874;6.466;2023-04-22T18:36:21;99603.69;;;13.90;96.32
63115;BME280;49208;50.874;6.466;2023-04-22T18:38:47;99612.66;;;13.75;96.75
63115;BME280;49208;50.874;6.466;2023-04-22T18:41:12;99622.66;;;13.57;97.41
63115;BME280;49208;50.874;6.466;2023-04-22T18:43:38;99625.22;;;13.44;98.67
63115;BME280;49208;50.874;6.466;2023-04-22T18:46:04;99620.53;;;13.33;99.75
63115;BME280;49208;50.874;6.466;2023-04-22T18:48:29;99632.69;;;13.23;100.00
63115;BME280;49208;50.874;6.466;2023-04-22T18:50:55;99636.69;;;13.16;100.00
63115;BME280;49208;50.874;6.466;2023-04-22T18:53:20;99638.88;;;13.09;100.00
63115;BME280;49208;50.874;6.466;2023-04-22T18:55:46;99643.69;;;13.03;100.00
63115;BME280;49208;50.874;6.466;2023-04-22T18:58:12;99645.81;;;12.98;100.00
63115;BME280;49208;50.874;6.466;2023-04-22T19:00:37;99647.00;;;12.92;100.00